Flight Track Log - Related Links

Times and Time Zones

All times are in EST time to prevent confusion due to time zone crossing. See the AVN11 flight status page for this flight to view local times or setup timezone preferences in your user account.

Time Position Orientation Groundspeed Altitude Reporting Facility
EST Latitude Longitude Course Direction KTS MPH feet Rate Location/Type
Thu 07:57:38 PM -33.9399 151.1714 74° East 121 139  Level FlightAware ADS-B (KCLL)
Thu 08:10:23 PM -33.9604 151.1911 348° North 130 150 15 Level FlightAware ADS-B (YSSY / SYD)
Thu 08:10:42 PM -33.9458 151.1872 347° North 171 197 200 1,543 Climbing FlightAware ADS-B (YSSY / SYD)
Thu 08:10:58 PM -33.9343 151.1860 355° North 167 192 900 2,700 Climbing FlightAware ADS-B
Thu 08:11:02 PM -33.9308 151.1875 20° North 158 182 1,100 2,667 Climbing FlightAware ADS-B (YSSY / SYD)
Thu 08:11:07 PM -33.9328 151.1865 202° Southwest 166 191 1,300 2,000 Climbing FlightAware ADS-B (YRAY)
Thu 08:11:17 PM -33.9237 151.1965 42° Northeast 172 198 1,600 2,000 Climbing FlightAware ADS-B
Thu 08:11:22 PM -33.9224 151.2027 75° East 175 201 1,800 2,000 Climbing FlightAware ADS-B (YSSY / SYD)
Thu 08:11:26 PM -33.9224 151.2063 91° East 181 208 1,900 667 Climbing FlightAware ADS-B (YRAY)
Thu 08:11:31 PM -33.9230 151.2108 99° East 192 221 1,900  Level FlightAware ADS-B
Thu 08:11:36 PM -33.9246 151.2164 109° East 203 234 1,900 600 Level FlightAware ADS-B (KCLL)
Thu 08:11:41 PM -33.9266 151.2218 114° Southeast 213 245 2,000 1,200 Climbing FlightAware ADS-B
Thu 08:11:56 PM -33.9331 151.2389 115° Southeast 230 265 2,300 1,800 Climbing FlightAware ADS-B (KCLL)
Thu 08:12:01 PM -33.9351 151.2463 107° East 238 274 2,600 1,304 Climbing FlightAware ADS-B
Thu 08:12:19 PM -33.9374 151.2717 96° East 269 310 2,800 632 Climbing FlightAware ADS-B (YRAY)
Thu 08:12:39 PM -33.9368 151.3032 89° East 307 353 3,000 1,304 Climbing FlightAware ADS-B (YRAY)
Thu 08:13:05 PM -33.9352 151.3509 88° East 337 388 3,800 1,800 Climbing FlightAware ADS-B
Thu 08:13:09 PM -33.9350 151.3569 87° East 275 316 3,900 2,432 Climbing FlightAware ADS-B (KCLL)
Thu 08:13:42 PM -33.9342 151.3808 88° East 349 402 5,300 2,769 Climbing FlightAware ADS-B
Thu 08:14:14 PM -33.9303 151.4834 87° East 348 400 6,900 2,769 Climbing FlightAware ADS-B
Thu 08:14:34 PM -33.9296 151.5016 87° East 360 414 7,700 2,550 Climbing FlightAware ADS-B
Thu 08:14:54 PM -33.9271 151.5631 87° East 370 426 8,600 2,533 Climbing FlightAware ADS-B
Thu 08:15:19 PM -33.9271 151.5631 87° East 378 435 9,600 2,900 Climbing FlightAware ADS-B
Thu 08:15:54 PM -33.9225 151.6863 87° East 383 441 11,500 3,037 Climbing FlightAware ADS-B
Thu 08:16:40 PM -33.9166 151.8097 87° East 394 453 13,700 2,301 Climbing FlightAware ADS-B (YPLB)
Thu 08:17:07 PM -33.9148 151.8182 76° East 401 461 14,300 1,647 Climbing FlightAware ADS-B
Thu 08:17:31 PM -33.8810 151.8845 58° Northeast 405 466 15,100 2,538 Climbing FlightAware ADS-B
Thu 08:17:59 PM -33.8327 151.9527 50° Northeast 413 475 16,500 2,261 Climbing FlightAware ADS-B (YPLB)
Thu 08:18:40 PM -33.7962 152.0047 50° Northeast 418 481 17,700 2,226 Climbing FlightAware ADS-B
Thu 08:19:01 PM -33.7565 152.0614 50° Northeast 422 486 18,800 2,550 Climbing FlightAware ADS-B (YPLB)
Thu 08:19:20 PM -33.7317 152.0968 50° Northeast 426 490 19,400 1,895 Climbing FlightAware ADS-B (YPLB)
Thu 08:19:58 PM -33.6944 152.1498 50° Northeast 429 494 20,600 1,579 Climbing Aus ATC (RADAR)
Thu 08:19:58 PM -33.6953 152.1483 50° Northeast 432 497 20,400 1,784 Descending FlightAware ADS-B (KCLL)
Thu 08:20:35 PM -33.6464 152.2175 50° Northeast 429 494 21,700 1,857 Climbing Aus ATC (RADAR)
Thu 08:20:40 PM -33.6272 152.2449 50° Northeast 446 513 21,700 2,533 Level FlightAware ADS-B (YPLB)
Thu 08:21:20 PM -33.5738 152.3210 50° Northeast 436 502 23,600 2,325 Climbing FlightAware ADS-B (YPLB)
Thu 08:22:00 PM -33.5354 152.3758 50° Northeast 427 491 24,800 1,950 Climbing Aus ATC (RADAR)
Thu 08:22:00 PM -33.5252 152.3898 50° Northeast 435 501 24,900 2,053 Climbing FlightAware ADS-B (YPLB)
Thu 08:22:38 PM -33.4856 152.4455 50° Northeast 434 499 26,100 2,049 Climbing Aus ATC (RADAR)
Thu 08:22:41 PM -33.4699 152.4674 50° Northeast 433 498 26,300 2,250 Climbing FlightAware ADS-B (YPLB)
Thu 08:23:18 PM -33.4208 152.5364 50° Northeast 429 494 27,600 1,909 Climbing FlightAware ADS-B (YPLB)
Thu 08:23:25 PM -33.4248 152.5306 50° Northeast 426 490 27,700 1,143 Climbing Aus ATC (RADAR)
Thu 08:24:00 PM -33.3793 152.5941 50° Northeast 425 489 28,400 1,029 Climbing Aus ATC (RADAR)
Thu 08:24:00 PM -33.3673 152.6111 50° Northeast 439 505 28,300 750 Descending FlightAware ADS-B (YPLB)
Thu 08:24:40 PM -33.3136 152.6860 49° Northeast 453 521 28,900 740 Climbing FlightAware ADS-B (YPLB)
Thu 08:25:13 PM -33.2806 152.7317 49° Northeast 457 526 29,200 150 Climbing Aus ATC (RADAR)
Thu 08:25:20 PM -33.2566 152.7652 49° Northeast 475 547 29,000 255 Descending FlightAware ADS-B (YPLB)
Thu 08:26:00 PM -33.1984 152.8467 50° Northeast 488 562 29,400 740 Climbing FlightAware ADS-B (YPLB)
Thu 08:26:33 PM -33.1647 152.8938 49° Northeast 483 556 29,900 1,102 Climbing FlightAware ADS-B (KCLL)
Thu 08:26:49 PM -33.1414 152.9263 49° Northeast 483 556 30,300 1,565 Climbing FlightAware ADS-B (KCLL)
Thu 08:27:19 PM -33.0963 152.9891 49° Northeast 478 550 31,100 1,600 Climbing Aus ATC (RADAR)
Thu 08:27:19 PM -33.0823 153.0085 49° Northeast 488 562 31,100 1,200 Level FlightAware ADS-B (YPLB)
Thu 08:27:59 PM -33.0249 153.0881 49° Northeast 488 562 31,900 1,171 Climbing FlightAware ADS-B (YPLB)
Thu 08:28:00 PM -33.0377 153.0704 49° Northeast 477 549 31,900 1,024 Level Aus ATC (RADAR)
Thu 08:28:40 PM -32.9645 153.1716 49° Northeast 490 564 32,600 1,143 Climbing FlightAware ADS-B (YPLB)
Thu 08:28:42 PM -32.9738 153.1582 49° Northeast 489 563 32,700 1,050 Climbing Aus ATC (RADAR)
Thu 08:29:20 PM -32.9198 153.2335 49° Northeast 480 552 33,300 923 Climbing Aus ATC (RADAR)
Thu 08:29:21 PM -32.9044 153.2545 49° Northeast 489 563 33,300 1,024 Level FlightAware ADS-B (YPLB)
Thu 08:30:01 PM -32.8448 153.3363 49° Northeast 490 564 34,000 835 Climbing FlightAware ADS-B (YPLB)
Thu 08:30:40 PM -32.7871 153.4156 49° Northeast 494 568 34,400 667 Climbing FlightAware ADS-B (YPLB)
Thu 08:31:22 PM -32.7240 153.5025 49° Northeast 498 573 34,900 444 Climbing FlightAware ADS-B (YPLB)
Thu 08:32:01 PM -32.6652 153.5833 49° Northeast 502 578 35,000 76 Climbing FlightAware ADS-B (YPLB)
Thu 08:32:41 PM -32.6042 153.6664 49° Northeast 503 579 35,000  Level FlightAware ADS-B (YPLB)
Thu 08:33:21 PM -32.5432 153.7492 49° Northeast 501 577 35,000  Level FlightAware ADS-B (YPLB)
Thu 08:33:55 PM -32.5041 153.8021 49° Northeast 491 565 35,000  Level FlightAware ADS-B (KCLL)
Thu 08:34:40 PM -32.4208 153.9149 49° Northeast 501 577 35,000  Level FlightAware ADS-B (YPLB)
Thu 08:35:22 PM -32.3587 153.9989 49° Northeast 499 574 35,000 273 Level FlightAware ADS-B (YPLB)
Thu 08:35:24 PM -32.3689 153.9854 49° Northeast 485 558 35,200  Climbing Aus ATC (RADAR)
Thu 08:35:56 PM -32.3044 154.0720 49° Northeast 498 573 35,000  Descending FlightAware ADS-B (YPLB)
Thu 08:35:59 PM -32.3156 154.0573 49° Northeast 485 558 35,200  Climbing Aus ATC (RADAR)
Thu 08:36:41 PM -32.2383 154.1610 49° Northeast 496 571 35,000  Descending FlightAware ADS-B (YPLB)
Thu 08:37:14 PM -32.2021 154.2097 49° Northeast 482 555 35,200  Climbing Aus ATC (RADAR)
Thu 08:37:20 PM -32.1790 154.2406 49° Northeast 496 571 35,000 -261 Descending FlightAware ADS-B (YPLB)
Thu 08:38:00 PM -32.1171 154.3237 49° Northeast 498 573 35,000  Level FlightAware ADS-B (YPLB)
Thu 08:38:39 PM -32.0591 154.4011 49° Northeast 499 574 35,000  Level FlightAware ADS-B (YPLB)
Thu 08:39:19 PM -31.9975 154.4833 49° Northeast 499 574 35,000  Level FlightAware ADS-B (YPLB)
Thu 08:39:52 PM -31.9508 154.5455 49° Northeast 500 575 35,000  Level FlightAware ADS-B (YPLB)
Thu 08:40:39 PM -31.8749 154.6464 48° Northeast 501 577 35,000  Level FlightAware ADS-B (YPLB)
Thu 08:41:20 PM -31.8117 154.7302 48° Northeast 501 577 35,000 156 Level FlightAware ADS-B (YPLB)
Thu 08:41:56 PM -31.7696 154.7857 48° Northeast 500 575 35,200  Climbing Aus ATC (RADAR)
Thu 08:42:00 PM -31.7491 154.8130 48° Northeast 501 577 35,000 -267 Descending FlightAware ADS-B (YPLB)
Thu 08:42:41 PM -31.6864 154.8959 48° Northeast 501 577 35,000  Level FlightAware ADS-B (YPLB)
Thu 08:43:25 PM -31.6181 154.9857 48° Northeast 501 577 35,000 207 Level FlightAware ADS-B (YPLB)
Thu 08:43:39 PM -31.6144 154.9912 48° Northeast 482 555 35,200  Climbing Aus ATC (RADAR)
Thu 08:44:00 PM -31.5636 155.0572 48° Northeast 500 575 35,000 -197 Descending FlightAware ADS-B (YPLB)
Thu 08:44:40 PM -31.5041 155.1349 48° Northeast 500 575 35,000  Level FlightAware ADS-B (YPLB)
Thu 08:45:20 PM -31.4424 155.2156 48° Northeast 500 575 35,000 279 Level FlightAware ADS-B (YPLB)
Thu 08:45:23 PM -31.4516 155.2038 48° Northeast 483 556 35,200  Climbing Aus ATC (RADAR)
Thu 08:45:51 PM -31.3943 155.2787 48° Northeast 500 575 35,000  Descending FlightAware ADS-B (YPLB)
Thu 08:45:59 PM -31.3986 155.2737 48° Northeast 481 554 35,200 133 Climbing Aus ATC (RADAR)
Thu 08:47:21 PM -31.2689 155.4424 48° Northeast 499 574 35,200  Level Aus ATC (RADAR)
Thu 08:47:36 PM -31.2457 155.4724 48° Northeast 499 574 35,200  Level Aus ATC (RADAR)
Thu 08:48:13 PM -31.1895 155.5452 48° Northeast 482 555 35,200  Level Aus ATC (RADAR)
Thu 08:48:58 PM -31.1196 155.6360 48° Northeast 482 555 35,200  Level Aus ATC (RADAR)
Thu 08:49:35 PM -31.0599 155.7128 48° Northeast 499 574 35,200  Level Aus ATC (RADAR)
Thu 08:50:25 PM -30.9821 155.8130 48° Northeast 500 575 35,200  Level Aus ATC (RADAR)
Thu 08:50:51 PM -30.9431 155.8630 48° Northeast 500 575 35,200  Level Aus ATC (RADAR)
Thu 08:52:10 PM -30.8178 156.0238 48° Northeast 502 578 35,200  Level Aus ATC (RADAR)
Thu 08:52:45 PM -30.7629 156.0940 48° Northeast 503 579 35,200  Level Aus ATC (RADAR)
Thu 08:53:00 PM -30.7392 156.1241 48° Northeast 503 579 35,200  Level Aus ATC (RADAR)
Thu 08:53:40 PM -30.6761 156.2047 48° Northeast 504 580 35,200  Level Aus ATC (RADAR)
Thu 08:54:15 PM -30.6210 156.2748 48° Northeast 504 580 35,200  Level Aus ATC (RADAR)
Thu 08:54:50 PM -30.5660 156.3446 48° Northeast 503 579 35,200 71 Level Aus ATC (RADAR)
Thu 08:55:40 PM -30.4876 156.4440 48° Northeast 500 575 35,300 75 Climbing Aus ATC (RADAR)
Thu 08:56:10 PM -30.4406 156.5032 47° Northeast 500 575 35,300  Level Aus ATC (RADAR)
Thu 08:57:40 PM -30.3002 156.6802 47° Northeast 496 571 35,300  Level Aus ATC (RADAR)
Thu 08:58:05 PM -30.2614 156.7290 47° Northeast 496 571 35,300  Level Aus ATC (RADAR)
Thu 08:58:40 PM -30.2071 156.7972 47° Northeast 493 567 35,300  Level Aus ATC (RADAR)
Thu 08:59:15 PM -30.1532 156.8649 47° Northeast 491 565 35,300  Level Aus ATC (RADAR)
Thu 08:59:50 PM -30.0988 156.9326 47° Northeast 491 565 35,300  Level Aus ATC (RADAR)
Thu 09:00:39 PM -30.0218 157.0289 47° Northeast 489 563 35,300  Level Aus ATC (RADAR)
Thu 09:01:04 PM -29.9837 157.0766 47° Northeast 486 559 35,300  Level Aus ATC (RADAR)
Thu 09:02:19 PM -29.8675 157.2210 47° Northeast 488 562 35,300  Level Aus ATC (RADAR)
Thu 09:02:44 PM -29.8287 157.2692 47° Northeast 489 563 35,300  Level Aus ATC (RADAR)
Thu 09:03:09 PM -29.7886 157.3179 46° Northeast 494 568 35,300  Level Aus ATC (RADAR)
Thu 09:03:44 PM -29.7360 157.3843 48° Northeast 488 562 35,300  Level Aus ATC (RADAR)
Thu 09:04:29 PM -29.6643 157.4716 47° Northeast 493 567 35,300  Level Aus ATC (RADAR)
Thu 09:05:04 PM -29.6087 157.5393 47° Northeast 496 571 35,300  Level Aus ATC (RADAR)
Thu 09:05:49 PM -29.5389 157.6259 47° Northeast 494 568 35,300  Level Aus ATC (RADAR)
Thu 09:06:19 PM -29.4923 157.6833 47° Northeast 491 565 35,300  Level Aus ATC (RADAR)
Thu 09:07:54 PM -29.3434 157.8656 47° Northeast 493 567 35,300  Level Aus ATC (RADAR)
Thu 09:08:09 PM -29.3204 157.8944 48° Northeast 491 565 35,300  Level Aus ATC (RADAR)
Thu 09:08:44 PM -29.2651 157.9619 47° Northeast 492 566 35,300  Level Aus ATC (RADAR)
Thu 09:09:19 PM -29.2098 158.0289 47° Northeast 492 566 35,300  Level Aus ATC (RADAR)
Thu 09:09:59 PM -29.1461 158.1051 46° Northeast 493 567 35,300  Level Aus ATC (RADAR)
Thu 09:10:44 PM -29.0739 158.1901 46° Northeast 495 570 35,300  Level Aus ATC (RADAR)
Thu 09:13:48 PM -28.7673 158.5600 46° Northeast 35,000 -98 Descending Aus ATC (Calculated)
Thu 09:15:00 PM -28.6623 158.6860 46° Northeast  Level FlightAware Approximate
Thu 09:15:43 PM -28.5753 158.7901 46° Northeast 35,000  Level Aus ATC (Calculated)
Thu 09:16:00 PM -28.5747 158.7908 46° Northeast  Level FlightAware Approximate
Thu 09:17:00 PM -28.4627 158.9244 46° Northeast  Level FlightAware Approximate
Thu 09:18:00 PM -28.3748 159.0288 46° Northeast  Level FlightAware Approximate
Thu 09:19:00 PM -28.2870 159.1331 46° Northeast  Level FlightAware Approximate
Thu 09:19:23 PM -28.2437 159.1963 244° Southwest 35,000  Level Aus ATC (Calculated)
Thu 09:21:00 PM -28.3334 158.9864 244° Southwest  Level FlightAware Approximate
Thu 09:21:42 PM -28.0428 159.4405 230° Southwest 35,000  Level Aus ATC (Calculated)
Thu 09:22:00 PM -28.2780 159.1163 64° Northeast  Level FlightAware Approximate
Thu 09:23:00 PM -27.9166 159.5611 47° Northeast  Level Estimated
Thu 09:23:58 PM -27.8541 159.6686 355° North 35,000  Level Aus ATC (Calculated)
Thu 09:24:00 PM -27.8301 159.6664 47° Northeast  Level FlightAware Approximate
Thu 09:24:42 PM -27.7655 159.7753 47° Northeast 35,000  Level Aus ATC (Calculated)
Thu 09:25:00 PM -27.7642 159.7768 47° Northeast  Level FlightAware Approximate
Thu 09:26:00 PM -27.6517 159.9119 47° Northeast  Level FlightAware Approximate
Thu 09:27:00 PM -27.5640 160.0168 47° Northeast  Level FlightAware Approximate
Thu 09:27:22 PM -27.5076 160.0842 47° Northeast 35,000  Level Aus ATC (Calculated)
Thu 09:28:00 PM -27.4762 160.1216 47° Northeast  Level FlightAware Approximate
Thu 09:29:00 PM -27.3641 160.2551 47° Northeast  Level FlightAware Approximate
Thu 09:30:00 PM -27.2762 160.3595 47° Northeast  Level FlightAware Approximate
Thu 09:30:22 PM -27.2341 160.4094 46° Northeast 35,000  Level Aus ATC (Calculated)
Thu 09:31:28 PM -27.1295 160.5331 46° Northeast 35,000  Level Aus ATC (Calculated)
Thu 09:33:00 PM -26.9943 160.6924 46° Northeast  Level FlightAware Approximate
Thu 09:33:28 PM -26.9298 160.7682 46° Northeast 35,000  Level Aus ATC (Calculated)
Thu 09:35:00 PM -26.7944 160.9269 46° Northeast  Level FlightAware Approximate
Thu 09:35:28 PM -26.7485 160.9806 46° Northeast 35,000  Level Aus ATC (Calculated)
Thu 09:36:00 PM -26.6937 161.0446 46° Northeast 35,000  Level Aus ATC (Calculated)
Thu 09:37:00 PM -26.6052 161.1477 46° Northeast  Level FlightAware Approximate
Thu 09:38:00 PM -26.5166 161.2507 46° Northeast  Level FlightAware Approximate
Thu 09:38:00 PM -26.4809 161.2921 46° Northeast 35,000  Level Aus ATC (Calculated)
Thu 09:39:00 PM -26.3923 161.3949 46° Northeast  Level FlightAware Approximate
Thu 09:40:00 PM -26.3035 161.4975 46° Northeast  Level FlightAware Approximate
Thu 09:41:00 PM -26.2147 161.5999 46° Northeast  Level FlightAware Approximate
Thu 09:42:00 PM -26.1258 161.7022 46° Northeast  Level FlightAware Approximate
Thu 09:43:00 PM -26.0368 161.8044 46° Northeast  Level FlightAware Approximate
Thu 09:44:00 PM -25.9478 161.9063 46° Northeast  Level FlightAware Approximate
Thu 09:45:00 PM -25.8587 162.0081 46° Northeast  Level FlightAware Approximate
Thu 09:46:00 PM -25.7695 162.1098 46° Northeast  Level FlightAware Approximate
Thu 09:47:00 PM -25.6802 162.2113 46° Northeast  Level FlightAware Approximate
Thu 09:48:00 PM -25.5909 162.3127 46° Northeast  Level FlightAware Approximate
Thu 09:48:00 PM -25.4981 162.4177 46° Northeast 35,000  Level Aus ATC (Calculated)
Thu 09:49:00 PM -25.4087 162.5188 46° Northeast  Level FlightAware Approximate
Thu 09:50:00 PM -25.3191 162.6197 46° Northeast  Level FlightAware Approximate
Thu 09:51:00 PM -25.2295 162.7204 46° Northeast  Level FlightAware Approximate
Thu 09:52:00 PM -25.1398 162.8210 45° Northeast  Level FlightAware Approximate
Thu 09:53:00 PM -25.0501 162.9215 45° Northeast  Level FlightAware Approximate
Thu 09:54:00 PM -24.9603 163.0218 45° Northeast  Level FlightAware Approximate
Thu 09:55:00 PM -25.0501 162.9215 225° Southwest  Level FlightAware Approximate
Thu 09:56:00 PM -24.9603 163.0218 45° Northeast  Level FlightAware Approximate
Thu 09:57:00 PM -25.0501 162.9215 225° Southwest  Level FlightAware Approximate
Thu 09:58:00 PM -24.9603 163.0218 45° Northeast  Level FlightAware Approximate
Thu 09:59:00 PM -25.0501 162.9215 225° Southwest  Level FlightAware Approximate
Thu 10:00:00 PM -24.9603 163.0218 45° Northeast  Level FlightAware Approximate
Thu 10:01:00 PM -25.0501 162.9215 225° Southwest  Level FlightAware Approximate
Thu 10:02:00 PM -24.9793 163.0007 45° Northeast  Level FlightAware Approximate
Thu 10:03:00 PM -24.8895 163.1009 45° Northeast  Level FlightAware Approximate
Thu 10:04:00 PM -24.7996 163.2010 45° Northeast  Level FlightAware Approximate
Thu 10:05:00 PM -24.7097 163.3010 45° Northeast  Level FlightAware Approximate
Thu 10:06:00 PM -24.6197 163.4008 45° Northeast  Level FlightAware Approximate
Thu 10:07:00 PM -24.5296 163.5005 45° Northeast  Level FlightAware Approximate
Thu 10:08:00 PM -24.4395 163.6001 45° Northeast  Level FlightAware Approximate
Thu 10:09:00 PM -24.3493 163.6995 45° Northeast  Level FlightAware Approximate
Thu 10:10:00 PM -24.2590 163.7987 45° Northeast  Level FlightAware Approximate
Thu 10:11:00 PM -24.1687 163.8978 45° Northeast  Level FlightAware Approximate
Thu 10:12:00 PM -24.0783 163.9968 45° Northeast  Level FlightAware Approximate
Thu 10:13:00 PM -23.9878 164.0957 45° Northeast  Level FlightAware Approximate
Thu 10:14:00 PM -23.8973 164.1944 45° Northeast  Level FlightAware Approximate
Thu 10:15:00 PM -23.8067 164.2929 45° Northeast  Level FlightAware Approximate
Thu 10:16:00 PM -23.7161 164.3914 45° Northeast  Level FlightAware Approximate
Thu 10:17:00 PM -23.6254 164.4896 45° Northeast  Level FlightAware Approximate
Thu 10:18:00 PM -23.5346 164.5878 45° Northeast  Level FlightAware Approximate
Thu 10:19:00 PM -23.4438 164.6858 45° Northeast  Level FlightAware Approximate
Thu 10:20:00 PM -23.3528 164.7837 45° Northeast  Level FlightAware Approximate
Thu 10:21:00 PM -23.2619 164.8814 45° Northeast  Level FlightAware Approximate
Thu 10:22:00 PM -23.1709 164.9790 45° Northeast  Level FlightAware Approximate
Thu 10:23:00 PM -23.0798 165.0764 45° Northeast  Level FlightAware Approximate
Thu 10:24:00 PM -22.9886 165.1738 45° Northeast  Level FlightAware Approximate
Thu 10:25:00 PM -22.8974 165.2710 44° Northeast  Level FlightAware Approximate
Thu 10:26:00 PM -22.8061 165.3680 44° Northeast  Level FlightAware Approximate
Thu 10:27:00 PM -22.7148 165.4650 44° Northeast  Level FlightAware Approximate
Thu 10:28:00 PM -22.6234 165.5618 44° Northeast  Level FlightAware Approximate
Thu 10:29:00 PM -22.5320 165.6584 44° Northeast  Level FlightAware Approximate
Thu 10:30:00 PM -22.4405 165.7550 44° Northeast  Level FlightAware Approximate
Thu 10:31:00 PM -22.3489 165.8514 44° Northeast  Level FlightAware Approximate
Thu 10:32:00 PM -22.2573 165.9477 44° Northeast  Level FlightAware Approximate
Thu 10:33:00 PM -22.1656 166.0439 44° Northeast  Level FlightAware Approximate
Thu 10:34:00 PM -22.0739 166.1399 44° Northeast  Level FlightAware Approximate
Thu 10:35:00 PM -21.9758 166.2258 24° Northeast  Level FlightAware Approximate
Thu 10:36:00 PM -21.8591 166.2819 24° Northeast  Level FlightAware Approximate
Thu 10:37:00 PM -21.7423 166.3378 24° Northeast  Level FlightAware Approximate
Thu 10:38:00 PM -21.6255 166.3936 24° Northeast  Level FlightAware Approximate
Thu 10:39:00 PM -21.5087 166.4494 24° Northeast  Level FlightAware Approximate
Thu 10:40:00 PM -21.3919 166.5051 24° Northeast  Level FlightAware Approximate
Thu 10:41:00 PM -21.2750 166.5606 24° Northeast  Level FlightAware Approximate
Thu 10:42:00 PM -21.1582 166.6161 24° Northeast  Level FlightAware Approximate
Thu 10:43:00 PM -21.0413 166.6715 24° Northeast  Level FlightAware Approximate
Thu 10:44:00 PM -20.9244 166.7268 24° Northeast  Level FlightAware Approximate
Thu 10:45:00 PM -20.8075 166.7820 24° Northeast  Level FlightAware Approximate
Thu 10:46:00 PM -20.6906 166.8371 24° Northeast  Level FlightAware Approximate
Thu 10:47:00 PM -20.5736 166.8922 24° Northeast  Level FlightAware Approximate
Thu 10:48:00 PM -20.4566 166.9472 24° Northeast  Level FlightAware Approximate
Thu 10:49:00 PM -20.3397 167.0020 24° Northeast  Level FlightAware Approximate
Thu 10:50:00 PM -20.2227 167.0568 24° Northeast  Level FlightAware Approximate
Thu 10:51:00 PM -20.1056 167.1116 24° Northeast  Level FlightAware Approximate
Thu 10:52:00 PM -19.9886 167.1662 24° Northeast  Level FlightAware Approximate
Thu 10:53:00 PM -19.8716 167.2207 24° Northeast  Level FlightAware Approximate
Thu 10:54:00 PM -19.7545 167.2752 24° Northeast  Level FlightAware Approximate
Thu 10:55:00 PM -19.6374 167.3296 24° Northeast  Level FlightAware Approximate
Thu 10:56:00 PM -19.5203 167.3839 24° Northeast  Level FlightAware Approximate
Thu 10:57:00 PM -19.4034 167.4385 24° Northeast  Level FlightAware Approximate
Thu 10:58:00 PM -19.2864 167.4930 24° Northeast  Level FlightAware Approximate
Thu 10:59:00 PM -19.1694 167.5475 24° Northeast  Level FlightAware Approximate
Thu 11:00:00 PM -19.0524 167.6018 24° Northeast  Level FlightAware Approximate
Thu 11:01:00 PM -18.9354 167.6561 24° Northeast  Level FlightAware Approximate
Thu 11:02:00 PM -18.8183 167.7104 24° Northeast  Level FlightAware Approximate
Thu 11:03:00 PM -18.7013 167.7645 24° Northeast  Level FlightAware Approximate
Thu 11:04:00 PM -18.5842 167.8186 24° Northeast  Level FlightAware Approximate
Thu 11:05:00 PM -18.4672 167.8728 24° Northeast  Level FlightAware Approximate
Thu 11:06:00 PM -18.3502 167.9269 24° Northeast  Level FlightAware Approximate
Thu 11:07:00 PM -18.2332 167.9810 24° Northeast  Level FlightAware Approximate
Thu 11:08:00 PM -18.1161 168.0351 24° Northeast  Level FlightAware Approximate
Thu 11:09:00 PM -17.9991 168.0890 24° Northeast  Level FlightAware Approximate
Thu 11:10:00 PM -17.8820 168.1429 24° Northeast  Level FlightAware Approximate
Thu 11:11:00 PM -17.7650 168.1967 24° Northeast  Level FlightAware Approximate
Thu 11:12:00 PM -17.6621 168.2439 24° Northeast  Level FlightAware Approximate
Thu 11:13:00 PM -17.6993 168.3198 24° Northeast  Level Estimated
Thu 11:14:00 PM -17.6993 168.3198 24° Northeast  Level Estimated
Thu 11:15:00 PM -17.6993 168.3198 24° Northeast  Level Estimated
Thu 11:16:00 PM -17.6993 168.3198 24° Northeast  Level Estimated
Thu 11:17:00 PM -17.6993 168.3198 24° Northeast  Level Estimated
Thu 11:18:00 PM -17.6993 168.3198 24° Northeast  Level Estimated
Thu 11:19:00 PM -17.6993 168.3198 24° Northeast  Level Estimated
Thu 11:20:00 PM -17.6993 168.3198 24° Northeast  Level Estimated

Login

Don't have an account? Register now (free) for customized features, flight alerts, and more!